Terminal Aerodrome Forecast
Issued by NWS

Home | Current Version | Previous Version | Text Only | Print | Product List | Glossary On
Versions: 1 2 3 4 5 6 7 8 9 10 11 12
000
FTUS46 KSGX 240520
TAFONT
TAF
KONT 240520Z 2406/2512 27009KT P6SM FEW250
     FM241200 VRB04KT 5SM HZ VCFG SCT005
     FM241500 VRB03KT P6SM FEW007
     FM242000 26012G18KT P6SM SCT200
     FM250500 VRB05KT P6SM FEW015 FEW250
     FM250700 VRB04KT P6SM OVC010=

USA.gov is the U.S. government's official web portal to all federal, state and local government web resources and services.